sensor_id;sensor_type;location;lat;lon;timestamp;P1;durP1;ratioP1;P2;durP2;ratioP2
78005;SDS011;67211;42.146;24.756;2023-04-06T00:01:07;9.80;;;8.82;;
78005;SDS011;67211;42.146;24.756;2023-04-06T00:03:33;10.50;;;9.27;;
78005;SDS011;67211;42.146;24.756;2023-04-06T00:06:00;10.98;;;9.13;;
78005;SDS011;67211;42.146;24.756;2023-04-06T00:08:26;10.10;;;8.38;;
78005;SDS011;67211;42.146;24.756;2023-04-06T00:10:52;11.35;;;9.15;;
78005;SDS011;67211;42.146;24.756;2023-04-06T00:13:17;9.45;;;8.50;;
78005;SDS011;67211;42.146;24.756;2023-04-06T00:15:43;9.13;;;7.07;;
78005;SDS011;67211;42.146;24.756;2023-04-06T00:18:09;9.45;;;8.55;;
78005;SDS011;67211;42.146;24.756;2023-04-06T00:20:34;10.27;;;9.18;;
78005;SDS011;67211;42.146;24.756;2023-04-06T00:23:00;10.65;;;9.57;;
78005;SDS011;67211;42.146;24.756;2023-04-06T00:25:25;9.93;;;8.93;;
78005;SDS011;67211;42.146;24.756;2023-04-06T00:27:55;10.30;;;8.77;;
78005;SDS011;67211;42.146;24.756;2023-04-06T00:30:20;11.05;;;9.82;;
78005;SDS011;67211;42.146;24.756;2023-04-06T00:32:46;11.45;;;10.25;;
78005;SDS011;67211;42.146;24.756;2023-04-06T00:35:11;14.65;;;10.88;;
78005;SDS011;67211;42.146;24.756;2023-04-06T00:37:40;10.55;;;8.13;;
78005;SDS011;67211;42.146;24.756;2023-04-06T00:40:05;10.40;;;8.88;;
78005;SDS011;67211;42.146;24.756;2023-04-06T00:42:33;10.45;;;9.13;;
78005;SDS011;67211;42.146;24.756;2023-04-06T00:44:59;12.63;;;10.18;;
78005;SDS011;67211;42.146;24.756;2023-04-06T00:47:31;11.35;;;9.63;;
78005;SDS011;67211;42.146;24.756;2023-04-06T00:49:59;10.30;;;8.80;;
78005;SDS011;67211;42.146;24.756;2023-04-06T00:52:27;10.13;;;8.90;;
78005;SDS011;67211;42.146;24.756;2023-04-06T00:54:52;10.85;;;7.78;;
78005;SDS011;67211;42.146;24.756;2023-04-06T00:57:18;10.15;;;8.93;;
78005;SDS011;67211;42.146;24.756;2023-04-06T00:59:48;12.85;;;10.43;;
78005;SDS011;67211;42.146;24.756;2023-04-06T01:02:13;12.98;;;9.75;;
78005;SDS011;67211;42.146;24.756;2023-04-06T01:04:40;11.35;;;10.15;;
78005;SDS011;67211;42.146;24.756;2023-04-06T01:07:05;22.83;;;11.68;;
78005;SDS011;67211;42.146;24.756;2023-04-06T01:09:31;14.90;;;11.35;;
78005;SDS011;67211;42.146;24.756;2023-04-06T01:11:57;10.15;;;6.57;;
78005;SDS011;67211;42.146;24.756;2023-04-06T01:14:23;10.35;;;8.73;;
78005;SDS011;67211;42.146;24.756;2023-04-06T01:16:49;10.43;;;9.32;;
78005;SDS011;67211;42.146;24.756;2023-04-06T01:19:15;10.23;;;9.23;;
78005;SDS011;67211;42.146;24.756;2023-04-06T01:21:41;11.02;;;9.68;;
78005;SDS011;67211;42.146;24.756;2023-04-06T01:24:07;12.02;;;9.52;;
78005;SDS011;67211;42.146;24.756;2023-04-06T01:26:34;10.18;;;9.18;;
78005;SDS011;67211;42.146;24.756;2023-04-06T01:29:03;9.07;;;7.15;;
78005;SDS011;67211;42.146;24.756;2023-04-06T01:31:29;10.48;;;9.10;;
78005;SDS011;67211;42.146;24.756;2023-04-06T01:33:55;9.98;;;7.70;;
78005;SDS011;67211;42.146;24.756;2023-04-06T01:36:21;11.55;;;10.00;;
78005;SDS011;67211;42.146;24.756;2023-04-06T01:38:49;12.68;;;11.38;;
78005;SDS011;67211;42.146;24.756;2023-04-06T01:41:15;8.98;;;8.13;;
78005;SDS011;67211;42.146;24.756;2023-04-06T01:43:42;10.98;;;9.23;;
78005;SDS011;67211;42.146;24.756;2023-04-06T01:46:08;11.20;;;9.85;;
78005;SDS011;67211;42.146;24.756;2023-04-06T01:48:33;11.75;;;10.45;;
78005;SDS011;67211;42.146;24.756;2023-04-06T01:50:59;10.18;;;9.05;;
78005;SDS011;67211;42.146;24.756;2023-04-06T01:53:27;11.88;;;9.85;;
78005;SDS011;67211;42.146;24.756;2023-04-06T01:55:54;9.73;;;8.55;;
78005;SDS011;67211;42.146;24.756;2023-04-06T01:58:20;17.63;;;13.57;;
78005;SDS011;67211;42.146;24.756;2023-04-06T02:00:45;14.52;;;13.13;;
78005;SDS011;67211;42.146;24.756;2023-04-06T02:03:14;11.23;;;10.05;;
78005;SDS011;67211;42.146;24.756;2023-04-06T02:05:39;11.52;;;10.43;;
78005;SDS011;67211;42.146;24.756;2023-04-06T02:08:05;10.23;;;9.20;;
78005;SDS011;67211;42.146;24.756;2023-04-06T02:10:31;11.15;;;9.95;;
78005;SDS011;67211;42.146;24.756;2023-04-06T02:12:57;8.40;;;7.55;;
78005;SDS011;67211;42.146;24.756;2023-04-06T02:15:23;10.68;;;8.90;;
78005;SDS011;67211;42.146;24.756;2023-04-06T02:17:48;10.00;;;8.68;;
78005;SDS011;67211;42.146;24.756;2023-04-06T02:20:14;9.68;;;8.35;;
78005;SDS011;67211;42.146;24.756;2023-04-06T02:22:40;11.30;;;8.25;;
78005;SDS011;67211;42.146;24.756;2023-04-06T02:25:05;9.43;;;8.27;;
78005;SDS011;67211;42.146;24.756;2023-04-06T02:27:32;11.18;;;10.02;;
78005;SDS011;67211;42.146;24.756;2023-04-06T02:29:58;10.30;;;9.23;;
78005;SDS011;67211;42.146;24.756;2023-04-06T02:32:23;9.38;;;8.38;;
78005;SDS011;67211;42.146;24.756;2023-04-06T02:34:49;12.07;;;9.65;;
78005;SDS011;67211;42.146;24.756;2023-04-06T02:37:16;14.07;;;10.73;;
78005;SDS011;67211;42.146;24.756;2023-04-06T02:39:41;12.35;;;9.93;;
78005;SDS011;67211;42.146;24.756;2023-04-06T02:42:07;14.35;;;11.18;;
78005;SDS011;67211;42.146;24.756;2023-04-06T02:44:33;14.95;;;9.25;;
78005;SDS011;67211;42.146;24.756;2023-04-06T02:46:59;12.30;;;10.55;;
78005;SDS011;67211;42.146;24.756;2023-04-06T02:49:27;10.23;;;9.23;;
78005;SDS011;67211;42.146;24.756;2023-04-06T02:51:53;13.30;;;10.43;;
78005;SDS011;67211;42.146;24.756;2023-04-06T02:54:21;9.48;;;7.50;;
78005;SDS011;67211;42.146;24.756;2023-04-06T02:56:47;12.15;;;10.38;;
78005;SDS011;67211;42.146;24.756;2023-04-06T02:59:12;13.25;;;11.05;;
78005;SDS011;67211;42.146;24.756;2023-04-06T03:01:38;12.00;;;10.70;;
78005;SDS011;67211;42.146;24.756;2023-04-06T03:04:05;12.07;;;10.73;;
78005;SDS011;67211;42.146;24.756;2023-04-06T03:06:30;10.20;;;8.95;;
78005;SDS011;67211;42.146;24.756;2023-04-06T03:08:56;11.48;;;10.23;;
78005;SDS011;67211;42.146;24.756;2023-04-06T03:11:21;12.02;;;10.50;;
78005;SDS011;67211;42.146;24.756;2023-04-06T03:13:47;10.60;;;7.90;;
78005;SDS011;67211;42.146;24.756;2023-04-06T03:16:12;13.10;;;10.52;;
78005;SDS011;67211;42.146;24.756;2023-04-06T03:18:38;8.73;;;7.05;;
78005;SDS011;67211;42.146;24.756;2023-04-06T03:21:04;13.10;;;11.75;;
78005;SDS011;67211;42.146;24.756;2023-04-06T03:23:30;13.60;;;12.07;;
78005;SDS011;67211;42.146;24.756;2023-04-06T03:25:55;14.45;;;10.40;;
78005;SDS011;67211;42.146;24.756;2023-04-06T03:28:23;14.20;;;11.05;;
78005;SDS011;67211;42.146;24.756;2023-04-06T03:30:49;10.43;;;9.32;;
78005;SDS011;67211;42.146;24.756;2023-04-06T03:33:15;10.98;;;9.80;;
78005;SDS011;67211;42.146;24.756;2023-04-06T03:35:43;12.80;;;10.80;;
78005;SDS011;67211;42.146;24.756;2023-04-06T03:38:08;12.88;;;10.73;;
78005;SDS011;67211;42.146;24.756;2023-04-06T03:40:34;10.60;;;8.10;;
78005;SDS011;67211;42.146;24.756;2023-04-06T03:43:01;15.15;;;11.18;;
78005;SDS011;67211;42.146;24.756;2023-04-06T03:45:29;14.10;;;11.18;;
78005;SDS011;67211;42.146;24.756;2023-04-06T03:47:56;13.48;;;10.95;;
78005;SDS011;67211;42.146;24.756;2023-04-06T03:50:21;14.35;;;12.23;;
78005;SDS011;67211;42.146;24.756;2023-04-06T03:52:49;12.80;;;11.45;;
78005;SDS011;67211;42.146;24.756;2023-04-06T03:55:14;15.85;;;11.45;;
78005;SDS011;67211;42.146;24.756;2023-04-06T03:57:41;14.10;;;11.00;;
78005;SDS011;67211;42.146;24.756;2023-04-06T04:00:06;13.55;;;11.43;;
78005;SDS011;67211;42.146;24.756;2023-04-06T04:02:32;13.55;;;10.35;;
78005;SDS011;67211;42.146;24.756;2023-04-06T04:04:58;14.18;;;11.13;;
78005;SDS011;67211;42.146;24.756;2023-04-06T04:07:27;17.23;;;13.05;;
78005;SDS011;67211;42.146;24.756;2023-04-06T04:09:53;15.30;;;12.57;;
78005;SDS011;67211;42.146;24.756;2023-04-06T04:12:18;14.90;;;11.93;;
78005;SDS011;67211;42.146;24.756;2023-04-06T04:14:44;11.65;;;10.45;;
78005;SDS011;67211;42.146;24.756;2023-04-06T04:17:09;13.05;;;11.15;;
78005;SDS011;67211;42.146;24.756;2023-04-06T04:19:36;12.57;;;10.85;;
78005;SDS011;67211;42.146;24.756;2023-04-06T04:22:04;12.07;;;10.02;;
78005;SDS011;67211;42.146;24.756;2023-04-06T04:24:31;13.13;;;10.77;;
78005;SDS011;67211;42.146;24.756;2023-04-06T04:26:56;11.80;;;9.77;;
78005;SDS011;67211;42.146;24.756;2023-04-06T04:29:26;11.85;;;10.43;;
78005;SDS011;67211;42.146;24.756;2023-04-06T04:31:51;13.60;;;11.23;;
78005;SDS011;67211;42.146;24.756;2023-04-06T04:34:17;14.98;;;10.75;;
78005;SDS011;67211;42.146;24.756;2023-04-06T04:36:45;14.15;;;12.18;;
78005;SDS011;67211;42.146;24.756;2023-04-06T04:39:11;17.33;;;12.80;;
78005;SDS011;67211;42.146;24.756;2023-04-06T04:41:39;12.43;;;11.00;;
78005;SDS011;67211;42.146;24.756;2023-04-06T04:44:06;16.92;;;13.38;;
78005;SDS011;67211;42.146;24.756;2023-04-06T04:46:32;13.05;;;11.25;;
78005;SDS011;67211;42.146;24.756;2023-04-06T04:48:57;12.32;;;9.15;;
78005;SDS011;67211;42.146;24.756;2023-04-06T04:51:22;14.32;;;11.23;;
78005;SDS011;67211;42.146;24.756;2023-04-06T04:53:49;12.93;;;10.85;;
78005;SDS011;67211;42.146;24.756;2023-04-06T04:56:15;12.73;;;10.68;;
78005;SDS011;67211;42.146;24.756;2023-04-06T04:58:42;12.25;;;10.45;;
78005;SDS011;67211;42.146;24.756;2023-04-06T05:01:07;13.63;;;11.15;;
78005;SDS011;67211;42.146;24.756;2023-04-06T05:03:33;12.65;;;10.70;;
78005;SDS011;67211;42.146;24.756;2023-04-06T05:05:59;11.40;;;9.35;;
78005;SDS011;67211;42.146;24.756;2023-04-06T05:08:26;13.90;;;10.63;;
78005;SDS011;67211;42.146;24.756;2023-04-06T05:10:52;13.27;;;11.93;;
78005;SDS011;67211;42.146;24.756;2023-04-06T05:13:17;12.40;;;10.05;;
78005;SDS011;67211;42.146;24.756;2023-04-06T05:15:43;11.48;;;9.43;;
78005;SDS011;67211;42.146;24.756;2023-04-06T05:18:10;11.93;;;9.68;;
78005;SDS011;67211;42.146;24.756;2023-04-06T05:20:36;10.18;;;9.10;;
78005;SDS011;67211;42.146;24.756;2023-04-06T05:23:01;15.70;;;11.30;;
78005;SDS011;67211;42.146;24.756;2023-04-06T05:25:27;12.40;;;9.18;;
78005;SDS011;67211;42.146;24.756;2023-04-06T05:27:53;11.25;;;8.98;;
78005;SDS011;67211;42.146;24.756;2023-04-06T05:30:18;10.63;;;9.32;;
78005;SDS011;67211;42.146;24.756;2023-04-06T05:32:45;9.45;;;8.20;;
78005;SDS011;67211;42.146;24.756;2023-04-06T05:35:11;12.43;;;9.45;;
78005;SDS011;67211;42.146;24.756;2023-04-06T05:37:38;14.07;;;10.10;;
78005;SDS011;67211;42.146;24.756;2023-04-06T05:40:05;10.13;;;8.68;;
78005;SDS011;67211;42.146;24.756;2023-04-06T05:42:40;13.88;;;11.05;;
78005;SDS011;67211;42.146;24.756;2023-04-06T05:45:07;10.75;;;9.02;;
78005;SDS011;67211;42.146;24.756;2023-04-06T05:47:39;12.25;;;9.05;;
78005;SDS011;67211;42.146;24.756;2023-04-06T05:50:05;10.90;;;8.32;;
78005;SDS011;67211;42.146;24.756;2023-04-06T05:52:31;8.80;;;6.82;;
78005;SDS011;67211;42.146;24.756;2023-04-06T05:54:57;10.85;;;8.05;;
78005;SDS011;67211;42.146;24.756;2023-04-06T05:57:22;11.27;;;7.13;;
78005;SDS011;67211;42.146;24.756;2023-04-06T05:59:50;12.25;;;8.45;;
78005;SDS011;67211;42.146;24.756;2023-04-06T06:02:17;14.07;;;9.00;;
78005;SDS011;67211;42.146;24.756;2023-04-06T06:04:43;11.82;;;7.70;;
78005;SDS011;67211;42.146;24.756;2023-04-06T06:07:08;9.93;;;7.10;;
78005;SDS011;67211;42.146;24.756;2023-04-06T06:09:35;9.18;;;7.38;;
78005;SDS011;67211;42.146;24.756;2023-04-06T06:12:02;10.93;;;7.10;;
78005;SDS011;67211;42.146;24.756;2023-04-06T06:14:27;8.10;;;6.13;;
78005;SDS011;67211;42.146;24.756;2023-04-06T06:16:55;9.57;;;7.13;;
78005;SDS011;67211;42.146;24.756;2023-04-06T06:19:23;9.48;;;7.75;;
78005;SDS011;67211;42.146;24.756;2023-04-06T06:21:48;8.07;;;6.22;;
78005;SDS011;67211;42.146;24.756;2023-04-06T06:24:14;8.93;;;6.03;;
78005;SDS011;67211;42.146;24.756;2023-04-06T06:26:40;9.68;;;6.78;;
78005;SDS011;67211;42.146;24.756;2023-04-06T06:29:06;8.23;;;6.05;;
78005;SDS011;67211;42.146;24.756;2023-04-06T06:31:33;9.70;;;6.47;;
78005;SDS011;67211;42.146;24.756;2023-04-06T06:33:59;6.80;;;5.53;;
78005;SDS011;67211;42.146;24.756;2023-04-06T06:36:25;10.15;;;6.38;;
78005;SDS011;67211;42.146;24.756;2023-04-06T06:38:52;9.77;;;6.13;;
78005;SDS011;67211;42.146;24.756;2023-04-06T06:41:17;9.73;;;5.45;;
78005;SDS011;67211;42.146;24.756;2023-04-06T06:43:43;9.98;;;5.88;;
78005;SDS011;67211;42.146;24.756;2023-04-06T06:46:09;7.95;;;5.93;;
78005;SDS011;67211;42.146;24.756;2023-04-06T06:48:35;8.63;;;5.75;;
78005;SDS011;67211;42.146;24.756;2023-04-06T06:51:03;8.88;;;6.28;;
78005;SDS011;67211;42.146;24.756;2023-04-06T06:53:29;17.05;;;8.88;;
78005;SDS011;67211;42.146;24.756;2023-04-06T06:55:57;8.40;;;5.60;;
78005;SDS011;67211;42.146;24.756;2023-04-06T06:58:22;8.25;;;6.35;;
78005;SDS011;67211;42.146;24.756;2023-04-06T07:00:49;8.95;;;6.55;;
78005;SDS011;67211;42.146;24.756;2023-04-06T07:03:18;7.93;;;5.50;;
78005;SDS011;67211;42.146;24.756;2023-04-06T07:05:46;8.77;;;5.55;;
78005;SDS011;67211;42.146;24.756;2023-04-06T07:08:17;7.72;;;5.30;;
78005;SDS011;67211;42.146;24.756;2023-04-06T07:10:43;12.13;;;6.65;;
78005;SDS011;67211;42.146;24.756;2023-04-06T07:13:09;9.52;;;5.57;;
78005;SDS011;67211;42.146;24.756;2023-04-06T07:15:34;9.68;;;8.18;;
78005;SDS011;67211;42.146;24.756;2023-04-06T07:18:00;7.90;;;5.63;;
78005;SDS011;67211;42.146;24.756;2023-04-06T07:20:25;8.25;;;5.97;;
78005;SDS011;67211;42.146;24.756;2023-04-06T07:22:53;7.65;;;5.55;;
78005;SDS011;67211;42.146;24.756;2023-04-06T07:25:18;10.93;;;8.18;;
78005;SDS011;67211;42.146;24.756;2023-04-06T07:27:45;11.98;;;5.78;;
78005;SDS011;67211;42.146;24.756;2023-04-06T07:30:10;10.88;;;6.05;;
78005;SDS011;67211;42.146;24.756;2023-04-06T07:32:36;9.50;;;5.95;;
78005;SDS011;67211;42.146;24.756;2023-04-06T07:35:02;8.77;;;5.25;;
78005;SDS011;67211;42.146;24.756;2023-04-06T07:37:29;7.97;;;5.57;;
78005;SDS011;67211;42.146;24.756;2023-04-06T07:39:55;7.93;;;5.65;;
78005;SDS011;67211;42.146;24.756;2023-04-06T07:42:20;8.18;;;5.95;;
78005;SDS011;67211;42.146;24.756;2023-04-06T07:44:47;8.35;;;6.00;;
78005;SDS011;67211;42.146;24.756;2023-04-06T07:47:13;7.57;;;6.35;;
78005;SDS011;67211;42.146;24.756;2023-04-06T07:49:38;14.18;;;5.78;;
78005;SDS011;67211;42.146;24.756;2023-04-06T07:52:04;9.10;;;5.90;;
78005;SDS011;67211;42.146;24.756;2023-04-06T07:54:29;9.40;;;6.10;;
78005;SDS011;67211;42.146;24.756;2023-04-06T07:56:55;7.95;;;6.00;;
78005;SDS011;67211;42.146;24.756;2023-04-06T07:59:20;10.15;;;6.72;;
78005;SDS011;67211;42.146;24.756;2023-04-06T08:01:46;8.95;;;6.40;;
78005;SDS011;67211;42.146;24.756;2023-04-06T08:04:11;8.20;;;6.40;;
78005;SDS011;67211;42.146;24.756;2023-04-06T08:06:37;6.95;;;5.00;;
78005;SDS011;67211;42.146;24.756;2023-04-06T08:09:02;8.77;;;6.57;;
78005;SDS011;67211;42.146;24.756;2023-04-06T08:11:28;8.35;;;5.78;;
78005;SDS011;67211;42.146;24.756;2023-04-06T08:13:54;8.95;;;5.85;;
78005;SDS011;67211;42.146;24.756;2023-04-06T08:16:21;8.25;;;6.25;;
78005;SDS011;67211;42.146;24.756;2023-04-06T08:18:47;7.43;;;5.85;;
78005;SDS011;67211;42.146;24.756;2023-04-06T08:21:13;7.85;;;5.20;;
78005;SDS011;67211;42.146;24.756;2023-04-06T08:23:39;9.10;;;6.25;;
78005;SDS011;67211;42.146;24.756;2023-04-06T08:26:05;8.63;;;6.30;;
78005;SDS011;67211;42.146;24.756;2023-04-06T08:28:30;8.38;;;6.05;;
78005;SDS011;67211;42.146;24.756;2023-04-06T08:30:56;7.50;;;4.72;;
78005;SDS011;67211;42.146;24.756;2023-04-06T08:33:21;7.32;;;5.15;;
78005;SDS011;67211;42.146;24.756;2023-04-06T08:35:47;6.65;;;4.60;;
78005;SDS011;67211;42.146;24.756;2023-04-06T08:38:12;6.90;;;5.60;;
78005;SDS011;67211;42.146;24.756;2023-04-06T08:40:38;9.32;;;5.20;;
78005;SDS011;67211;42.146;24.756;2023-04-06T08:43:06;7.43;;;5.82;;
78005;SDS011;67211;42.146;24.756;2023-04-06T08:45:33;6.60;;;5.00;;
78005;SDS011;67211;42.146;24.756;2023-04-06T08:47:59;6.57;;;5.18;;
78005;SDS011;67211;42.146;24.756;2023-04-06T08:50:27;7.22;;;5.13;;
78005;SDS011;67211;42.146;24.756;2023-04-06T08:52:54;7.38;;;4.85;;
78005;SDS011;67211;42.146;24.756;2023-04-06T08:55:21;6.70;;;5.10;;
78005;SDS011;67211;42.146;24.756;2023-04-06T08:57:47;6.15;;;4.85;;
78005;SDS011;67211;42.146;24.756;2023-04-06T09:00:14;7.75;;;5.55;;
78005;SDS011;67211;42.146;24.756;2023-04-06T09:02:41;7.07;;;4.80;;
78005;SDS011;67211;42.146;24.756;2023-04-06T09:05:08;8.02;;;4.80;;
78005;SDS011;67211;42.146;24.756;2023-04-06T09:07:35;7.15;;;4.80;;
78005;SDS011;67211;42.146;24.756;2023-04-06T09:10:04;8.85;;;5.70;;
78005;SDS011;67211;42.146;24.756;2023-04-06T09:12:31;8.10;;;5.85;;
78005;SDS011;67211;42.146;24.756;2023-04-06T09:14:57;7.18;;;5.13;;
78005;SDS011;67211;42.146;24.756;2023-04-06T09:17:33;7.38;;;6.57;;
78005;SDS011;67211;42.146;24.756;2023-04-06T09:19:59;7.00;;;5.00;;
78005;SDS011;67211;42.146;24.756;2023-04-06T09:22:34;6.03;;;5.10;;
78005;SDS011;67211;42.146;24.756;2023-04-06T09:25:08;6.35;;;5.75;;
78005;SDS011;67211;42.146;24.756;2023-04-06T09:27:43;6.07;;;4.75;;
78005;SDS011;67211;42.146;24.756;2023-04-06T09:30:09;6.13;;;4.32;;
78005;SDS011;67211;42.146;24.756;2023-04-06T09:35:17;6.10;;;3.35;;
78005;SDS011;67211;42.146;24.756;2023-04-06T09:37:45;6.30;;;3.30;;
78005;SDS011;67211;42.146;24.756;2023-04-06T09:40:12;6.07;;;4.72;;
78005;SDS011;67211;42.146;24.756;2023-04-06T09:42:40;6.32;;;4.50;;
78005;SDS011;67211;42.146;24.756;2023-04-06T09:45:07;4.88;;;3.45;;
78005;SDS011;67211;42.146;24.756;2023-04-06T09:47:33;4.50;;;3.08;;
78005;SDS011;67211;42.146;24.756;2023-04-06T09:50:05;4.97;;;3.53;;
78005;SDS011;67211;42.146;24.756;2023-04-06T09:52:31;5.43;;;3.65;;
78005;SDS011;67211;42.146;24.756;2023-04-06T09:55:04;6.78;;;3.85;;
78005;SDS011;67211;42.146;24.756;2023-04-06T10:00:32;5.78;;;3.10;;
78005;SDS011;67211;42.146;24.756;2023-04-06T10:06:12;4.20;;;3.33;;
78005;SDS011;67211;42.146;24.756;2023-04-06T10:08:37;6.75;;;3.72;;
78005;SDS011;67211;42.146;24.756;2023-04-06T10:11:05;5.13;;;3.55;;
78005;SDS011;67211;42.146;24.756;2023-04-06T10:13:31;5.00;;;3.47;;
78005;SDS011;67211;42.146;24.756;2023-04-06T10:15:57;5.38;;;4.32;;
78005;SDS011;67211;42.146;24.756;2023-04-06T10:18:22;5.45;;;3.90;;
78005;SDS011;67211;42.146;24.756;2023-04-06T10:26:21;7.05;;;3.85;;
78005;SDS011;67211;42.146;24.756;2023-04-06T10:28:47;5.50;;;3.75;;
78005;SDS011;67211;42.146;24.756;2023-04-06T10:31:14;4.70;;;3.13;;
78005;SDS011;67211;42.146;24.756;2023-04-06T10:33:40;4.65;;;3.33;;
78005;SDS011;67211;42.146;24.756;2023-04-06T10:36:14;4.00;;;3.22;;
78005;SDS011;67211;42.146;24.756;2023-04-06T10:38:46;6.05;;;3.63;;
78005;SDS011;67211;42.146;24.756;2023-04-06T10:41:11;4.82;;;3.60;;
78005;SDS011;67211;42.146;24.756;2023-04-06T10:43:38;4.78;;;3.60;;
78005;SDS011;67211;42.146;24.756;2023-04-06T10:46:06;5.80;;;3.97;;
78005;SDS011;67211;42.146;24.756;2023-04-06T10:48:43;4.47;;;3.25;;
78005;SDS011;67211;42.146;24.756;2023-04-06T10:51:14;5.15;;;3.90;;
78005;SDS011;67211;42.146;24.756;2023-04-06T10:53:41;7.07;;;4.07;;
78005;SDS011;67211;42.146;24.756;2023-04-06T10:56:15;5.38;;;3.25;;
78005;SDS011;67211;42.146;24.756;2023-04-06T10:58:46;5.45;;;3.38;;
78005;SDS011;67211;42.146;24.756;2023-04-06T11:01:12;6.28;;;3.50;;
78005;SDS011;67211;42.146;24.756;2023-04-06T11:03:46;4.68;;;3.40;;
78005;SDS011;67211;42.146;24.756;2023-04-06T11:06:22;4.80;;;3.45;;
78005;SDS011;67211;42.146;24.756;2023-04-06T11:08:48;5.55;;;3.30;;
78005;SDS011;67211;42.146;24.756;2023-04-06T11:11:15;6.40;;;4.03;;
78005;SDS011;67211;42.146;24.756;2023-04-06T11:16:13;4.60;;;3.25;;
78005;SDS011;67211;42.146;24.756;2023-04-06T11:19:12;4.85;;;3.03;;
78005;SDS011;67211;42.146;24.756;2023-04-06T11:21:35;5.50;;;3.95;;
78005;SDS011;67211;42.146;24.756;2023-04-06T11:26:45;5.50;;;4.50;;
78005;SDS011;67211;42.146;24.756;2023-04-06T11:29:15;5.90;;;3.80;;
78005;SDS011;67211;42.146;24.756;2023-04-06T11:31:42;4.57;;;3.35;;
78005;SDS011;67211;42.146;24.756;2023-04-06T11:34:15;6.57;;;4.18;;
78005;SDS011;67211;42.146;24.756;2023-04-06T11:36:42;5.05;;;3.90;;
78005;SDS011;67211;42.146;24.756;2023-04-06T11:39:08;6.93;;;4.95;;
78005;SDS011;67211;42.146;24.756;2023-04-06T11:41:35;4.78;;;3.75;;
78005;SDS011;67211;42.146;24.756;2023-04-06T11:44:02;6.05;;;4.18;;
78005;SDS011;67211;42.146;24.756;2023-04-06T11:46:28;6.95;;;5.22;;
78005;SDS011;67211;42.146;24.756;2023-04-06T11:48:53;6.25;;;4.13;;
78005;SDS011;67211;42.146;24.756;2023-04-06T11:51:23;5.47;;;4.32;;
78005;SDS011;67211;42.146;24.756;2023-04-06T11:53:51;5.22;;;4.53;;
78005;SDS011;67211;42.146;24.756;2023-04-06T11:56:27;5.70;;;3.92;;
78005;SDS011;67211;42.146;24.756;2023-04-06T11:58:54;6.20;;;3.75;;
78005;SDS011;67211;42.146;24.756;2023-04-06T12:01:25;5.05;;;4.05;;
78005;SDS011;67211;42.146;24.756;2023-04-06T12:03:51;5.18;;;3.72;;
78005;SDS011;67211;42.146;24.756;2023-04-06T12:06:17;5.47;;;4.20;;
78005;SDS011;67211;42.146;24.756;2023-04-06T12:08:43;6.50;;;5.18;;
78005;SDS011;67211;42.146;24.756;2023-04-06T12:11:09;6.25;;;4.63;;
78005;SDS011;67211;42.146;24.756;2023-04-06T12:13:35;5.57;;;4.13;;
78005;SDS011;67211;42.146;24.756;2023-04-06T12:16:01;6.57;;;4.43;;
78005;SDS011;67211;42.146;24.756;2023-04-06T12:18:26;5.88;;;5.03;;
78005;SDS011;67211;42.146;24.756;2023-04-06T12:20:52;5.97;;;4.32;;
78005;SDS011;67211;42.146;24.756;2023-04-06T12:23:18;7.93;;;4.72;;
78005;SDS011;67211;42.146;24.756;2023-04-06T12:25:44;6.80;;;4.57;;
78005;SDS011;67211;42.146;24.756;2023-04-06T12:28:09;7.05;;;4.28;;
78005;SDS011;67211;42.146;24.756;2023-04-06T12:30:35;6.43;;;4.35;;
78005;SDS011;67211;42.146;24.756;2023-04-06T12:33:00;7.10;;;4.82;;
78005;SDS011;67211;42.146;24.756;2023-04-06T12:35:26;6.60;;;4.32;;
78005;SDS011;67211;42.146;24.756;2023-04-06T12:37:52;6.53;;;4.80;;
78005;SDS011;67211;42.146;24.756;2023-04-06T12:40:17;5.78;;;4.13;;
78005;SDS011;67211;42.146;24.756;2023-04-06T12:42:43;6.32;;;4.80;;
78005;SDS011;67211;42.146;24.756;2023-04-06T12:45:10;5.65;;;4.50;;
78005;SDS011;67211;42.146;24.756;2023-04-06T12:47:36;5.82;;;4.65;;
78005;SDS011;67211;42.146;24.756;2023-04-06T12:50:02;5.82;;;4.47;;
78005;SDS011;67211;42.146;24.756;2023-04-06T12:52:30;9.45;;;5.78;;
78005;SDS011;67211;42.146;24.756;2023-04-06T12:54:56;7.25;;;5.10;;
78005;SDS011;67211;42.146;24.756;2023-04-06T12:57:24;8.38;;;5.15;;
78005;SDS011;67211;42.146;24.756;2023-04-06T12:59:50;9.32;;;5.70;;
78005;SDS011;67211;42.146;24.756;2023-04-06T13:02:16;7.85;;;6.68;;
78005;SDS011;67211;42.146;24.756;2023-04-06T13:04:42;8.40;;;5.38;;
78005;SDS011;67211;42.146;24.756;2023-04-06T13:07:08;16.30;;;8.30;;
78005;SDS011;67211;42.146;24.756;2023-04-06T13:09:33;20.48;;;10.02;;
78005;SDS011;67211;42.146;24.756;2023-04-06T13:11:59;10.02;;;6.15;;
78005;SDS011;67211;42.146;24.756;2023-04-06T13:14:24;9.02;;;7.25;;
78005;SDS011;67211;42.146;24.756;2023-04-06T13:16:50;6.70;;;5.00;;
78005;SDS011;67211;42.146;24.756;2023-04-06T13:19:16;10.43;;;6.75;;
78005;SDS011;67211;42.146;24.756;2023-04-06T13:21:43;9.77;;;6.63;;
78005;SDS011;67211;42.146;24.756;2023-04-06T13:24:11;7.05;;;5.22;;
78005;SDS011;67211;42.146;24.756;2023-04-06T13:26:36;7.40;;;5.53;;
78005;SDS011;67211;42.146;24.756;2023-04-06T13:29:02;8.50;;;5.40;;
78005;SDS011;67211;42.146;24.756;2023-04-06T13:31:28;7.32;;;5.72;;
78005;SDS011;67211;42.146;24.756;2023-04-06T13:33:55;9.15;;;5.95;;
78005;SDS011;67211;42.146;24.756;2023-04-06T13:36:20;7.45;;;5.40;;
78005;SDS011;67211;42.146;24.756;2023-04-06T13:38:47;6.80;;;4.95;;
78005;SDS011;67211;42.146;24.756;2023-04-06T13:41:19;8.93;;;5.55;;
78005;SDS011;67211;42.146;24.756;2023-04-06T13:43:46;6.78;;;5.18;;
78005;SDS011;67211;42.146;24.756;2023-04-06T13:46:11;9.10;;;5.60;;
78005;SDS011;67211;42.146;24.756;2023-04-06T13:48:37;7.80;;;6.10;;
78005;SDS011;67211;42.146;24.756;2023-04-06T13:51:12;7.75;;;5.50;;
78005;SDS011;67211;42.146;24.756;2023-04-06T13:53:39;6.75;;;5.55;;
78005;SDS011;67211;42.146;24.756;2023-04-06T13:56:05;8.70;;;5.35;;
78005;SDS011;67211;42.146;24.756;2023-04-06T13:58:32;7.80;;;5.55;;
78005;SDS011;67211;42.146;24.756;2023-04-06T14:01:07;7.57;;;5.68;;
78005;SDS011;67211;42.146;24.756;2023-04-06T14:03:34;8.18;;;5.63;;
78005;SDS011;67211;42.146;24.756;2023-04-06T14:06:00;9.63;;;5.18;;
78005;SDS011;67211;42.146;24.756;2023-04-06T14:08:28;7.53;;;5.63;;
78005;SDS011;67211;42.146;24.756;2023-04-06T14:10:54;6.35;;;5.03;;
78005;SDS011;67211;42.146;24.756;2023-04-06T14:13:22;7.97;;;5.53;;
78005;SDS011;67211;42.146;24.756;2023-04-06T14:15:52;7.72;;;5.07;;
78005;SDS011;67211;42.146;24.756;2023-04-06T14:18:18;7.00;;;4.68;;
78005;SDS011;67211;42.146;24.756;2023-04-06T14:20:43;7.80;;;6.55;;
78005;SDS011;67211;42.146;24.756;2023-04-06T14:23:08;8.82;;;5.90;;
78005;SDS011;67211;42.146;24.756;2023-04-06T14:25:35;6.47;;;5.07;;
78005;SDS011;67211;42.146;24.756;2023-04-06T14:28:01;7.47;;;5.13;;
78005;SDS011;67211;42.146;24.756;2023-04-06T14:30:26;9.70;;;5.53;;
78005;SDS011;67211;42.146;24.756;2023-04-06T14:32:53;8.75;;;6.38;;
78005;SDS011;67211;42.146;24.756;2023-04-06T14:35:22;9.77;;;6.28;;
78005;SDS011;67211;42.146;24.756;2023-04-06T14:37:47;5.65;;;4.72;;
78005;SDS011;67211;42.146;24.756;2023-04-06T14:40:13;6.65;;;4.95;;
78005;SDS011;67211;42.146;24.756;2023-04-06T14:42:38;8.93;;;5.75;;